LFSG/EPL METAR and TAF weather

Enter ICAO airport designator
Station Type Date Time Source
LFSG METAR 2020/09/28 08:30 UTC NOAA

LFSG 280830Z AUTO 17005KT 150V210 9999 OVC011 09/07 Q1010


Station Type Date Time Source
LFSG Decoded METAR 2020/09/28 08:30 UTC NOAA

Station name not available
Sep 28, 2020 - 04:30 AM EDT / 2020.09.28 0830 UTC
Wind: from the S (170 degrees) at 6 MPH (5 KT) (direction variable):0
Visibility: greater than 7 mile(s):0
Sky conditions: overcast
Temperature: 48 F (9 C)
Dew Point: 44 F (7 C)
Relative Humidity: 87%
Pressure (altimeter): 29.83 in. Hg (1010 hPa)
ob: LFSG 280830Z AUTO 17005KT 150V210 9999 OVC011 09/07 Q1010
cycle: 8

Station Type Date Time Source
LFSG TAF UTC NOAA

Error!

Example: see airport list